KCFD/CFD METAR and TAF weather

Enter ICAO airport designator
Station Type Date Time Source
KCFD METAR 2021/04/17 02:35 UTC NOAA

KCFD 170235Z AUTO 36005KT 10SM OVC006 15/15 A2992 RMK AO2 T01510151


Station Type Date Time Source
KCFD Decoded METAR 2021/04/17 02:35 UTC NOAA

Station name not available
Apr 16, 2021 - 10:35 PM EDT / 2021.04.17 0235 UTC
Wind: from the N (360 degrees) at 6 MPH (5 KT):0
Visibility: 10 mile(s):0
Sky conditions: overcast
Temperature: 59.2 F (15.1 C)
Dew Point: 59.2 F (15.1 C)
Relative Humidity: 100%
Pressure (altimeter): 29.92 in. Hg (1013 hPa)
ob: KCFD 170235Z AUTO 36005KT 10SM OVC006 15/15 A2992 RMK AO2 T01510151
cycle: 2

Station Type Date Time Source
KCFD TAF UTC NOAA

Error!

Example: see airport list